sensor_id;sensor_type;location;lat;lon;timestamp;temperature;humidity
24902;DHT22;31328;51.402;0.016;2024-01-06T00:02:02;6.90;99.90
24902;DHT22;31328;51.402;0.016;2024-01-06T00:04:29;6.90;99.90
24902;DHT22;31328;51.402;0.016;2024-01-06T00:06:55;6.90;99.90
24902;DHT22;31328;51.402;0.016;2024-01-06T00:09:22;6.90;99.90
24902;DHT22;31328;51.402;0.016;2024-01-06T00:11:48;7.00;99.90
24902;DHT22;31328;51.402;0.016;2024-01-06T00:14:14;7.00;99.90
24902;DHT22;31328;51.402;0.016;2024-01-06T00:16:41;7.00;99.90
24902;DHT22;31328;51.402;0.016;2024-01-06T00:19:07;7.00;99.90
24902;DHT22;31328;51.402;0.016;2024-01-06T00:21:33;7.10;99.90
24902;DHT22;31328;51.402;0.016;2024-01-06T00:24:00;7.10;99.90
24902;DHT22;31328;51.402;0.016;2024-01-06T00:26:26;7.10;99.90
24902;DHT22;31328;51.402;0.016;2024-01-06T00:28:53;7.10;99.90
24902;DHT22;31328;51.402;0.016;2024-01-06T00:31:19;7.10;99.90
24902;DHT22;31328;51.402;0.016;2024-01-06T00:33:46;7.20;99.90
24902;DHT22;31328;51.402;0.016;2024-01-06T00:36:12;7.20;99.90
24902;DHT22;31328;51.402;0.016;2024-01-06T00:38:39;7.20;99.90
24902;DHT22;31328;51.402;0.016;2024-01-06T00:41:05;7.20;99.90
24902;DHT22;31328;51.402;0.016;2024-01-06T00:43:31;7.20;99.90
24902;DHT22;31328;51.402;0.016;2024-01-06T00:45:58;7.20;99.90
24902;DHT22;31328;51.402;0.016;2024-01-06T00:48:24;7.20;99.90
24902;DHT22;31328;51.402;0.016;2024-01-06T00:50:50;7.20;99.90
24902;DHT22;31328;51.402;0.016;2024-01-06T00:53:16;7.20;99.90
24902;DHT22;31328;51.402;0.016;2024-01-06T00:55:43;7.20;99.90
24902;DHT22;31328;51.402;0.016;2024-01-06T00:58:09;7.30;99.90
24902;DHT22;31328;51.402;0.016;2024-01-06T01:00:36;7.20;99.90
24902;DHT22;31328;51.402;0.016;2024-01-06T01:03:02;7.20;99.90
24902;DHT22;31328;51.402;0.016;2024-01-06T01:05:28;7.20;99.90
24902;DHT22;31328;51.402;0.016;2024-01-06T01:07:55;7.20;99.90
24902;DHT22;31328;51.402;0.016;2024-01-06T01:10:21;7.20;99.90
24902;DHT22;31328;51.402;0.016;2024-01-06T01:12:47;7.20;99.90
24902;DHT22;31328;51.402;0.016;2024-01-06T01:15:14;7.20;99.90
24902;DHT22;31328;51.402;0.016;2024-01-06T01:17:40;7.20;99.90
24902;DHT22;31328;51.402;0.016;2024-01-06T01:20:07;7.20;99.90
24902;DHT22;31328;51.402;0.016;2024-01-06T01:22:34;7.20;99.90
24902;DHT22;31328;51.402;0.016;2024-01-06T01:25:00;7.20;99.90
24902;DHT22;31328;51.402;0.016;2024-01-06T01:27:31;7.30;99.90
24902;DHT22;31328;51.402;0.016;2024-01-06T01:29:57;7.30;99.90
24902;DHT22;31328;51.402;0.016;2024-01-06T01:32:24;7.20;99.90
24902;DHT22;31328;51.402;0.016;2024-01-06T01:34:50;7.20;99.90
24902;DHT22;31328;51.402;0.016;2024-01-06T01:37:16;7.20;99.90
24902;DHT22;31328;51.402;0.016;2024-01-06T01:39:42;7.30;99.90
24902;DHT22;31328;51.402;0.016;2024-01-06T01:42:09;7.30;99.90
24902;DHT22;31328;51.402;0.016;2024-01-06T01:44:35;7.30;99.90
24902;DHT22;31328;51.402;0.016;2024-01-06T01:47:04;7.30;99.90
24902;DHT22;31328;51.402;0.016;2024-01-06T01:49:31;7.30;99.90
24902;DHT22;31328;51.402;0.016;2024-01-06T01:51:59;7.30;99.90
24902;DHT22;31328;51.402;0.016;2024-01-06T01:54:25;7.30;99.90
24902;DHT22;31328;51.402;0.016;2024-01-06T01:56:52;7.30;99.90
24902;DHT22;31328;51.402;0.016;2024-01-06T01:59:19;7.30;99.90
24902;DHT22;31328;51.402;0.016;2024-01-06T02:01:46;7.30;99.90
24902;DHT22;31328;51.402;0.016;2024-01-06T02:04:13;7.30;99.90
24902;DHT22;31328;51.402;0.016;2024-01-06T02:06:39;7.30;99.90
24902;DHT22;31328;51.402;0.016;2024-01-06T02:09:06;7.30;99.90
24902;DHT22;31328;51.402;0.016;2024-01-06T02:11:32;7.30;99.90
24902;DHT22;31328;51.402;0.016;2024-01-06T02:13:58;7.30;99.90
24902;DHT22;31328;51.402;0.016;2024-01-06T02:16:25;7.30;99.90
24902;DHT22;31328;51.402;0.016;2024-01-06T02:18:51;7.30;99.90
24902;DHT22;31328;51.402;0.016;2024-01-06T02:21:18;7.30;99.90
24902;DHT22;31328;51.402;0.016;2024-01-06T02:23:47;7.30;99.90
24902;DHT22;31328;51.402;0.016;2024-01-06T02:26:16;7.30;99.90
24902;DHT22;31328;51.402;0.016;2024-01-06T02:28:42;7.30;99.90
24902;DHT22;31328;51.402;0.016;2024-01-06T02:31:14;7.40;99.90
24902;DHT22;31328;51.402;0.016;2024-01-06T02:33:40;7.40;99.90
24902;DHT22;31328;51.402;0.016;2024-01-06T02:36:07;7.40;99.90
24902;DHT22;31328;51.402;0.016;2024-01-06T02:38:33;7.40;99.90
24902;DHT22;31328;51.402;0.016;2024-01-06T02:40:59;7.40;99.90
24902;DHT22;31328;51.402;0.016;2024-01-06T02:43:26;7.40;99.90
24902;DHT22;31328;51.402;0.016;2024-01-06T02:45:52;7.40;99.90
24902;DHT22;31328;51.402;0.016;2024-01-06T02:48:18;7.40;99.90
24902;DHT22;31328;51.402;0.016;2024-01-06T02:50:45;7.40;99.90
24902;DHT22;31328;51.402;0.016;2024-01-06T02:53:11;7.40;99.90
24902;DHT22;31328;51.402;0.016;2024-01-06T02:55:39;7.40;99.90
24902;DHT22;31328;51.402;0.016;2024-01-06T02:58:05;7.40;99.90
24902;DHT22;31328;51.402;0.016;2024-01-06T03:00:32;7.40;99.90
24902;DHT22;31328;51.402;0.016;2024-01-06T03:02:58;7.40;99.90
24902;DHT22;31328;51.402;0.016;2024-01-06T03:05:24;7.40;99.90
24902;DHT22;31328;51.402;0.016;2024-01-06T03:07:51;7.40;99.90
24902;DHT22;31328;51.402;0.016;2024-01-06T03:10:17;7.40;99.90
24902;DHT22;31328;51.402;0.016;2024-01-06T03:12:43;7.40;99.90
24902;DHT22;31328;51.402;0.016;2024-01-06T03:15:10;7.50;99.90
24902;DHT22;31328;51.402;0.016;2024-01-06T03:17:37;7.50;99.90
24902;DHT22;31328;51.402;0.016;2024-01-06T03:20:04;7.40;99.90
24902;DHT22;31328;51.402;0.016;2024-01-06T03:22:30;7.40;99.90
24902;DHT22;31328;51.402;0.016;2024-01-06T03:24:57;7.40;99.90
24902;DHT22;31328;51.402;0.016;2024-01-06T03:27:23;7.40;99.90
24902;DHT22;31328;51.402;0.016;2024-01-06T03:29:50;7.20;99.90
24902;DHT22;31328;51.402;0.016;2024-01-06T03:32:16;7.40;99.90
24902;DHT22;31328;51.402;0.016;2024-01-06T03:34:42;7.40;99.90
24902;DHT22;31328;51.402;0.016;2024-01-06T03:37:09;7.40;99.90
24902;DHT22;31328;51.402;0.016;2024-01-06T03:39:35;7.40;99.90
24902;DHT22;31328;51.402;0.016;2024-01-06T03:42:01;7.40;99.90
24902;DHT22;31328;51.402;0.016;2024-01-06T03:44:29;7.40;99.90
24902;DHT22;31328;51.402;0.016;2024-01-06T03:46:57;7.40;99.90
24902;DHT22;31328;51.402;0.016;2024-01-06T03:49:26;7.40;99.90
24902;DHT22;31328;51.402;0.016;2024-01-06T03:51:53;7.30;99.90
24902;DHT22;31328;51.402;0.016;2024-01-06T03:54:19;7.30;99.90
24902;DHT22;31328;51.402;0.016;2024-01-06T03:56:45;7.30;99.90
24902;DHT22;31328;51.402;0.016;2024-01-06T03:59:12;7.30;99.90
24902;DHT22;31328;51.402;0.016;2024-01-06T04:01:38;7.30;99.90
24902;DHT22;31328;51.402;0.016;2024-01-06T04:04:05;7.30;99.90
24902;DHT22;31328;51.402;0.016;2024-01-06T04:06:31;7.30;99.90
24902;DHT22;31328;51.402;0.016;2024-01-06T04:08:58;7.30;99.90
24902;DHT22;31328;51.402;0.016;2024-01-06T04:11:24;7.30;99.90
24902;DHT22;31328;51.402;0.016;2024-01-06T04:13:50;7.30;99.90
24902;DHT22;31328;51.402;0.016;2024-01-06T04:16:17;7.30;99.90
24902;DHT22;31328;51.402;0.016;2024-01-06T04:18:43;7.30;99.90
24902;DHT22;31328;51.402;0.016;2024-01-06T04:21:09;7.30;99.90
24902;DHT22;31328;51.402;0.016;2024-01-06T04:23:37;7.30;99.90
24902;DHT22;31328;51.402;0.016;2024-01-06T04:26:03;7.30;99.90
24902;DHT22;31328;51.402;0.016;2024-01-06T04:28:31;7.30;99.90
24902;DHT22;31328;51.402;0.016;2024-01-06T04:30:57;7.30;99.90
24902;DHT22;31328;51.402;0.016;2024-01-06T04:33:23;7.30;99.90
24902;DHT22;31328;51.402;0.016;2024-01-06T04:35:49;7.30;99.90
24902;DHT22;31328;51.402;0.016;2024-01-06T04:38:19;7.30;99.90
24902;DHT22;31328;51.402;0.016;2024-01-06T04:40:45;7.30;99.90
24902;DHT22;31328;51.402;0.016;2024-01-06T04:43:12;7.30;99.90
24902;DHT22;31328;51.402;0.016;2024-01-06T04:45:38;7.20;99.90
24902;DHT22;31328;51.402;0.016;2024-01-06T04:48:05;7.20;99.90
24902;DHT22;31328;51.402;0.016;2024-01-06T04:50:31;7.30;99.90
24902;DHT22;31328;51.402;0.016;2024-01-06T04:52:58;7.20;99.90
24902;DHT22;31328;51.402;0.016;2024-01-06T04:55:24;7.20;99.90
24902;DHT22;31328;51.402;0.016;2024-01-06T04:57:50;7.20;99.90
24902;DHT22;31328;51.402;0.016;2024-01-06T05:00:17;7.20;99.90
24902;DHT22;31328;51.402;0.016;2024-01-06T05:02:44;7.10;99.90
24902;DHT22;31328;51.402;0.016;2024-01-06T05:05:10;7.10;99.90
24902;DHT22;31328;51.402;0.016;2024-01-06T05:07:36;7.10;99.90
24902;DHT22;31328;51.402;0.016;2024-01-06T05:10:03;7.10;99.90
24902;DHT22;31328;51.402;0.016;2024-01-06T05:12:29;7.10;99.90
24902;DHT22;31328;51.402;0.016;2024-01-06T05:14:56;7.10;99.90
24902;DHT22;31328;51.402;0.016;2024-01-06T05:17:22;7.10;99.90
24902;DHT22;31328;51.402;0.016;2024-01-06T05:19:49;7.10;99.90
24902;DHT22;31328;51.402;0.016;2024-01-06T05:22:15;7.10;99.90
24902;DHT22;31328;51.402;0.016;2024-01-06T05:24:42;7.10;99.90
24902;DHT22;31328;51.402;0.016;2024-01-06T05:27:08;7.10;99.90
24902;DHT22;31328;51.402;0.016;2024-01-06T05:29:34;7.10;99.90
24902;DHT22;31328;51.402;0.016;2024-01-06T05:32:01;7.10;99.90
24902;DHT22;31328;51.402;0.016;2024-01-06T05:34:27;7.10;99.90
24902;DHT22;31328;51.402;0.016;2024-01-06T05:36:53;7.10;99.90
24902;DHT22;31328;51.402;0.016;2024-01-06T05:39:20;7.10;99.90
24902;DHT22;31328;51.402;0.016;2024-01-06T05:41:46;7.10;99.90
24902;DHT22;31328;51.402;0.016;2024-01-06T05:44:13;7.10;99.90
24902;DHT22;31328;51.402;0.016;2024-01-06T05:46:39;7.10;99.90
24902;DHT22;31328;51.402;0.016;2024-01-06T05:49:05;7.10;99.90
24902;DHT22;31328;51.402;0.016;2024-01-06T05:51:32;7.10;99.90
24902;DHT22;31328;51.402;0.016;2024-01-06T05:53:58;7.00;99.90
24902;DHT22;31328;51.402;0.016;2024-01-06T05:56:25;7.10;99.90
24902;DHT22;31328;51.402;0.016;2024-01-06T05:58:53;7.00;99.90
24902;DHT22;31328;51.402;0.016;2024-01-06T06:01:19;7.00;99.90
24902;DHT22;31328;51.402;0.016;2024-01-06T06:03:47;7.00;99.90
24902;DHT22;31328;51.402;0.016;2024-01-06T06:06:13;7.00;99.90
24902;DHT22;31328;51.402;0.016;2024-01-06T06:08:41;7.00;99.90
24902;DHT22;31328;51.402;0.016;2024-01-06T06:11:08;7.00;99.90
24902;DHT22;31328;51.402;0.016;2024-01-06T06:13:39;7.00;99.90
24902;DHT22;31328;51.402;0.016;2024-01-06T06:16:10;7.00;99.90
24902;DHT22;31328;51.402;0.016;2024-01-06T06:18:40;7.00;99.90
24902;DHT22;31328;51.402;0.016;2024-01-06T06:21:09;7.00;99.90
24902;DHT22;31328;51.402;0.016;2024-01-06T06:23:36;7.00;99.90
24902;DHT22;31328;51.402;0.016;2024-01-06T06:26:06;7.00;99.90
24902;DHT22;31328;51.402;0.016;2024-01-06T06:28:33;7.00;99.90
24902;DHT22;31328;51.402;0.016;2024-01-06T06:31:01;7.00;99.90
24902;DHT22;31328;51.402;0.016;2024-01-06T06:33:27;7.00;99.90
24902;DHT22;31328;51.402;0.016;2024-01-06T06:35:54;7.00;99.90
24902;DHT22;31328;51.402;0.016;2024-01-06T06:38:20;7.00;99.90
24902;DHT22;31328;51.402;0.016;2024-01-06T06:40:47;7.00;99.90
24902;DHT22;31328;51.402;0.016;2024-01-06T06:43:14;7.00;99.90
24902;DHT22;31328;51.402;0.016;2024-01-06T06:45:40;7.00;99.90
24902;DHT22;31328;51.402;0.016;2024-01-06T06:48:07;6.90;99.90
24902;DHT22;31328;51.402;0.016;2024-01-06T06:50:33;6.90;99.90
24902;DHT22;31328;51.402;0.016;2024-01-06T06:53:00;6.90;99.90
24902;DHT22;31328;51.402;0.016;2024-01-06T06:55:27;6.90;99.90
24902;DHT22;31328;51.402;0.016;2024-01-06T06:57:53;6.90;99.90
24902;DHT22;31328;51.402;0.016;2024-01-06T07:00:20;7.00;99.90
24902;DHT22;31328;51.402;0.016;2024-01-06T07:02:46;7.00;99.90
24902;DHT22;31328;51.402;0.016;2024-01-06T07:05:13;7.10;99.90
24902;DHT22;31328;51.402;0.016;2024-01-06T07:07:40;7.00;99.90
24902;DHT22;31328;51.402;0.016;2024-01-06T07:10:07;7.00;99.90
24902;DHT22;31328;51.402;0.016;2024-01-06T07:12:33;6.90;99.90
24902;DHT22;31328;51.402;0.016;2024-01-06T07:15:00;7.00;99.90
24902;DHT22;31328;51.402;0.016;2024-01-06T07:17:26;6.90;99.90
24902;DHT22;31328;51.402;0.016;2024-01-06T07:19:52;7.00;99.90
24902;DHT22;31328;51.402;0.016;2024-01-06T07:22:20;6.90;99.90
24902;DHT22;31328;51.402;0.016;2024-01-06T07:24:46;7.00;99.90
24902;DHT22;31328;51.402;0.016;2024-01-06T07:27:13;7.00;99.90
24902;DHT22;31328;51.402;0.016;2024-01-06T07:29:39;7.00;99.90
24902;DHT22;31328;51.402;0.016;2024-01-06T07:32:06;7.00;99.90
24902;DHT22;31328;51.402;0.016;2024-01-06T07:34:32;7.00;99.90
24902;DHT22;31328;51.402;0.016;2024-01-06T07:37:00;7.00;99.90
24902;DHT22;31328;51.402;0.016;2024-01-06T07:39:26;7.00;99.90
24902;DHT22;31328;51.402;0.016;2024-01-06T07:41:52;7.00;99.90
24902;DHT22;31328;51.402;0.016;2024-01-06T07:44:19;7.00;99.90
24902;DHT22;31328;51.402;0.016;2024-01-06T07:46:51;7.00;99.90
24902;DHT22;31328;51.402;0.016;2024-01-06T07:49:17;7.00;99.90
24902;DHT22;31328;51.402;0.016;2024-01-06T07:51:44;7.00;99.90
24902;DHT22;31328;51.402;0.016;2024-01-06T07:54:10;7.00;99.90
24902;DHT22;31328;51.402;0.016;2024-01-06T07:56:38;7.00;99.90
24902;DHT22;31328;51.402;0.016;2024-01-06T07:59:05;7.00;99.90
24902;DHT22;31328;51.402;0.016;2024-01-06T08:01:31;7.00;99.90
24902;DHT22;31328;51.402;0.016;2024-01-06T08:03:58;7.00;99.90
24902;DHT22;31328;51.402;0.016;2024-01-06T08:06:25;7.00;99.90
24902;DHT22;31328;51.402;0.016;2024-01-06T08:08:51;6.90;99.90
24902;DHT22;31328;51.402;0.016;2024-01-06T08:11:18;7.00;99.90
24902;DHT22;31328;51.402;0.016;2024-01-06T08:13:44;7.00;99.90
24902;DHT22;31328;51.402;0.016;2024-01-06T08:16:10;7.00;99.90
24902;DHT22;31328;51.402;0.016;2024-01-06T08:18:37;7.00;99.90
24902;DHT22;31328;51.402;0.016;2024-01-06T08:21:03;7.00;99.90
24902;DHT22;31328;51.402;0.016;2024-01-06T08:23:29;7.00;99.90
24902;DHT22;31328;51.402;0.016;2024-01-06T08:25:56;7.00;99.90
24902;DHT22;31328;51.402;0.016;2024-01-06T08:28:23;6.90;99.90
24902;DHT22;31328;51.402;0.016;2024-01-06T08:30:49;6.90;99.90
24902;DHT22;31328;51.402;0.016;2024-01-06T08:33:16;6.90;99.90
24902;DHT22;31328;51.402;0.016;2024-01-06T08:35:44;6.90;99.90
24902;DHT22;31328;51.402;0.016;2024-01-06T08:38:10;6.90;99.90
24902;DHT22;31328;51.402;0.016;2024-01-06T08:40:36;6.90;99.90
24902;DHT22;31328;51.402;0.016;2024-01-06T08:43:03;6.90;99.90
24902;DHT22;31328;51.402;0.016;2024-01-06T08:45:29;6.90;99.90
24902;DHT22;31328;51.402;0.016;2024-01-06T08:47:56;7.00;99.90
24902;DHT22;31328;51.402;0.016;2024-01-06T08:50:23;6.90;99.90
24902;DHT22;31328;51.402;0.016;2024-01-06T08:52:49;7.00;99.90
24902;DHT22;31328;51.402;0.016;2024-01-06T08:55:15;7.00;99.90
24902;DHT22;31328;51.402;0.016;2024-01-06T08:57:42;7.00;99.90
24902;DHT22;31328;51.402;0.016;2024-01-06T09:00:09;7.00;99.90
24902;DHT22;31328;51.402;0.016;2024-01-06T09:02:36;7.00;99.90
24902;DHT22;31328;51.402;0.016;2024-01-06T09:05:03;7.00;99.90
24902;DHT22;31328;51.402;0.016;2024-01-06T09:07:30;7.00;99.90
24902;DHT22;31328;51.402;0.016;2024-01-06T09:09:56;7.00;99.90
24902;DHT22;31328;51.402;0.016;2024-01-06T09:12:23;7.00;99.90
24902;DHT22;31328;51.402;0.016;2024-01-06T09:14:49;7.00;99.90
24902;DHT22;31328;51.402;0.016;2024-01-06T09:17:15;7.00;99.90
24902;DHT22;31328;51.402;0.016;2024-01-06T09:19:42;7.00;99.90
24902;DHT22;31328;51.402;0.016;2024-01-06T09:22:08;7.10;99.90
24902;DHT22;31328;51.402;0.016;2024-01-06T09:24:34;7.10;99.90
24902;DHT22;31328;51.402;0.016;2024-01-06T09:27:01;7.10;99.90
24902;DHT22;31328;51.402;0.016;2024-01-06T09:29:27;7.10;99.90
24902;DHT22;31328;51.402;0.016;2024-01-06T09:31:53;7.10;99.90
24902;DHT22;31328;51.402;0.016;2024-01-06T09:34:20;7.00;99.90
24902;DHT22;31328;51.402;0.016;2024-01-06T09:36:46;7.10;99.90
24902;DHT22;31328;51.402;0.016;2024-01-06T09:39:13;7.10;99.90
24902;DHT22;31328;51.402;0.016;2024-01-06T09:41:39;7.10;99.90
24902;DHT22;31328;51.402;0.016;2024-01-06T09:44:05;7.10;99.90
24902;DHT22;31328;51.402;0.016;2024-01-06T09:46:32;7.10;99.90
24902;DHT22;31328;51.402;0.016;2024-01-06T09:48:58;7.10;99.90
24902;DHT22;31328;51.402;0.016;2024-01-06T09:51:26;7.20;99.90
24902;DHT22;31328;51.402;0.016;2024-01-06T09:54:00;7.10;99.90
24902;DHT22;31328;51.402;0.016;2024-01-06T09:56:28;7.20;99.90
24902;DHT22;31328;51.402;0.016;2024-01-06T09:58:58;7.10;99.90
24902;DHT22;31328;51.402;0.016;2024-01-06T10:01:24;7.20;99.90
24902;DHT22;31328;51.402;0.016;2024-01-06T10:03:50;7.20;99.90
24902;DHT22;31328;51.402;0.016;2024-01-06T10:06:17;7.20;99.90
24902;DHT22;31328;51.402;0.016;2024-01-06T10:08:47;7.20;99.90
24902;DHT22;31328;51.402;0.016;2024-01-06T10:11:14;7.30;99.90
24902;DHT22;31328;51.402;0.016;2024-01-06T10:13:41;7.30;99.90
24902;DHT22;31328;51.402;0.016;2024-01-06T10:16:08;7.40;99.90
24902;DHT22;31328;51.402;0.016;2024-01-06T10:18:34;7.40;99.90
24902;DHT22;31328;51.402;0.016;2024-01-06T10:21:05;7.40;99.90
24902;DHT22;31328;51.402;0.016;2024-01-06T10:23:33;7.50;99.90
24902;DHT22;31328;51.402;0.016;2024-01-06T10:25:59;7.50;99.90
24902;DHT22;31328;51.402;0.016;2024-01-06T10:28:26;7.60;99.90
24902;DHT22;31328;51.402;0.016;2024-01-06T10:30:53;7.60;99.90
24902;DHT22;31328;51.402;0.016;2024-01-06T10:33:21;7.60;99.90
24902;DHT22;31328;51.402;0.016;2024-01-06T10:35:48;7.70;99.90
24902;DHT22;31328;51.402;0.016;2024-01-06T10:38:15;7.70;99.90
24902;DHT22;31328;51.402;0.016;2024-01-06T10:41:04;7.70;99.90
24902;DHT22;31328;51.402;0.016;2024-01-06T10:43:36;7.70;99.90
24902;DHT22;31328;51.402;0.016;2024-01-06T10:46:07;7.70;99.90
24902;DHT22;31328;51.402;0.016;2024-01-06T10:48:38;7.70;99.90
24902;DHT22;31328;51.402;0.016;2024-01-06T10:51:04;7.70;99.90
24902;DHT22;31328;51.402;0.016;2024-01-06T10:53:34;7.80;99.90
24902;DHT22;31328;51.402;0.016;2024-01-06T10:56:06;7.80;99.90
24902;DHT22;31328;51.402;0.016;2024-01-06T10:58:48;7.80;99.90
24902;DHT22;31328;51.402;0.016;2024-01-06T11:01:21;7.70;99.90
24902;DHT22;31328;51.402;0.016;2024-01-06T11:03:48;7.70;99.90
24902;DHT22;31328;51.402;0.016;2024-01-06T11:06:17;7.80;99.90
24902;DHT22;31328;51.402;0.016;2024-01-06T11:11:40;7.80;99.90
24902;DHT22;31328;51.402;0.016;2024-01-06T11:14:24;7.80;99.90
24902;DHT22;31328;51.402;0.016;2024-01-06T11:16:51;7.80;99.90
24902;DHT22;31328;51.402;0.016;2024-01-06T11:24:49;7.80;99.90
24902;DHT22;31328;51.402;0.016;2024-01-06T11:27:34;7.80;99.90
24902;DHT22;31328;51.402;0.016;2024-01-06T11:30:03;7.80;99.90
24902;DHT22;31328;51.402;0.016;2024-01-06T11:32:33;7.80;99.90
24902;DHT22;31328;51.402;0.016;2024-01-06T11:35:12;7.90;99.90
24902;DHT22;31328;51.402;0.016;2024-01-06T11:40:11;7.90;99.90
24902;DHT22;31328;51.402;0.016;2024-01-06T11:42:42;7.90;99.90
24902;DHT22;31328;51.402;0.016;2024-01-06T11:45:08;7.90;99.90
24902;DHT22;31328;51.402;0.016;2024-01-06T11:47:35;7.90;99.90
24902;DHT22;31328;51.402;0.016;2024-01-06T11:50:03;7.90;99.90
24902;DHT22;31328;51.402;0.016;2024-01-06T11:52:33;7.90;99.90
24902;DHT22;31328;51.402;0.016;2024-01-06T11:55:00;7.80;99.90
24902;DHT22;31328;51.402;0.016;2024-01-06T11:57:27;7.80;99.90
24902;DHT22;31328;51.402;0.016;2024-01-06T11:59:54;7.80;99.90
24902;DHT22;31328;51.402;0.016;2024-01-06T12:02:21;7.80;99.90
24902;DHT22;31328;51.402;0.016;2024-01-06T12:04:51;7.80;99.90
24902;DHT22;31328;51.402;0.016;2024-01-06T12:07:19;7.80;99.90
24902;DHT22;31328;51.402;0.016;2024-01-06T12:09:46;7.80;99.90
24902;DHT22;31328;51.402;0.016;2024-01-06T12:12:17;7.80;99.90
24902;DHT22;31328;51.402;0.016;2024-01-06T12:14:44;7.80;99.90
24902;DHT22;31328;51.402;0.016;2024-01-06T12:17:12;7.80;99.90
24902;DHT22;31328;51.402;0.016;2024-01-06T12:19:40;7.90;99.90
24902;DHT22;31328;51.402;0.016;2024-01-06T12:22:12;7.90;99.90
24902;DHT22;31328;51.402;0.016;2024-01-06T12:24:39;7.90;99.90
24902;DHT22;31328;51.402;0.016;2024-01-06T12:27:09;7.90;99.90
24902;DHT22;31328;51.402;0.016;2024-01-06T12:29:40;7.90;99.90
24902;DHT22;31328;51.402;0.016;2024-01-06T12:32:08;8.00;99.90
24902;DHT22;31328;51.402;0.016;2024-01-06T12:34:35;8.10;99.90
24902;DHT22;31328;51.402;0.016;2024-01-06T12:37:02;8.00;99.90
24902;DHT22;31328;51.402;0.016;2024-01-06T12:39:30;8.00;99.90
24902;DHT22;31328;51.402;0.016;2024-01-06T12:41:56;8.00;99.90
24902;DHT22;31328;51.402;0.016;2024-01-06T12:44:23;8.00;99.90
24902;DHT22;31328;51.402;0.016;2024-01-06T12:46:49;8.00;99.90
24902;DHT22;31328;51.402;0.016;2024-01-06T12:49:15;7.90;99.90
24902;DHT22;31328;51.402;0.016;2024-01-06T12:51:42;7.90;99.90
24902;DHT22;31328;51.402;0.016;2024-01-06T12:54:08;7.90;99.90
24902;DHT22;31328;51.402;0.016;2024-01-06T12:56:34;7.90;99.90
24902;DHT22;31328;51.402;0.016;2024-01-06T12:59:01;7.90;99.90
24902;DHT22;31328;51.402;0.016;2024-01-06T13:01:27;7.90;99.90
24902;DHT22;31328;51.402;0.016;2024-01-06T13:03:54;7.90;99.90
24902;DHT22;31328;51.402;0.016;2024-01-06T13:06:21;7.90;99.90
24902;DHT22;31328;51.402;0.016;2024-01-06T13:08:47;7.80;99.90
24902;DHT22;31328;51.402;0.016;2024-01-06T13:11:14;7.80;99.90
24902;DHT22;31328;51.402;0.016;2024-01-06T13:13:40;7.80;99.90
24902;DHT22;31328;51.402;0.016;2024-01-06T13:16:06;7.80;99.90
24902;DHT22;31328;51.402;0.016;2024-01-06T13:18:33;7.80;99.90
24902;DHT22;31328;51.402;0.016;2024-01-06T13:20:59;7.90;99.90
24902;DHT22;31328;51.402;0.016;2024-01-06T13:23:26;7.90;99.90
24902;DHT22;31328;51.402;0.016;2024-01-06T13:25:52;7.90;99.90
24902;DHT22;31328;51.402;0.016;2024-01-06T13:28:19;7.80;99.90
24902;DHT22;31328;51.402;0.016;2024-01-06T13:30:45;7.80;99.90
24902;DHT22;31328;51.402;0.016;2024-01-06T13:33:12;7.80;99.90
24902;DHT22;31328;51.402;0.016;2024-01-06T13:35:39;7.70;99.90
24902;DHT22;31328;51.402;0.016;2024-01-06T13:38:05;7.70;99.90
24902;DHT22;31328;51.402;0.016;2024-01-06T13:40:31;7.70;99.90
24902;DHT22;31328;51.402;0.016;2024-01-06T13:42:58;7.70;99.90
24902;DHT22;31328;51.402;0.016;2024-01-06T13:45:24;7.60;99.90
24902;DHT22;31328;51.402;0.016;2024-01-06T13:47:51;7.60;99.90
24902;DHT22;31328;51.402;0.016;2024-01-06T13:50:18;7.50;99.90
24902;DHT22;31328;51.402;0.016;2024-01-06T13:52:45;7.50;99.90
24902;DHT22;31328;51.402;0.016;2024-01-06T13:55:11;7.50;99.90
24902;DHT22;31328;51.402;0.016;2024-01-06T13:57:38;7.50;99.90
24902;DHT22;31328;51.402;0.016;2024-01-06T14:00:11;7.50;99.90
24902;DHT22;31328;51.402;0.016;2024-01-06T14:02:41;7.60;99.90
24902;DHT22;31328;51.402;0.016;2024-01-06T14:05:07;7.60;99.90
24902;DHT22;31328;51.402;0.016;2024-01-06T14:07:35;7.60;99.90
24902;DHT22;31328;51.402;0.016;2024-01-06T14:10:02;7.60;99.90
24902;DHT22;31328;51.402;0.016;2024-01-06T14:12:31;7.70;99.90
24902;DHT22;31328;51.402;0.016;2024-01-06T14:14:57;7.60;99.90
24902;DHT22;31328;51.402;0.016;2024-01-06T14:17:25;7.70;99.90
24902;DHT22;31328;51.402;0.016;2024-01-06T14:19:51;7.70;99.90
24902;DHT22;31328;51.402;0.016;2024-01-06T14:22:18;7.70;99.90
24902;DHT22;31328;51.402;0.016;2024-01-06T14:24:44;7.70;99.90
24902;DHT22;31328;51.402;0.016;2024-01-06T14:27:11;7.80;99.90
24902;DHT22;31328;51.402;0.016;2024-01-06T14:29:38;7.80;99.90
24902;DHT22;31328;51.402;0.016;2024-01-06T14:32:05;7.80;99.90
24902;DHT22;31328;51.402;0.016;2024-01-06T14:34:31;7.90;99.90
24902;DHT22;31328;51.402;0.016;2024-01-06T14:36:58;7.90;99.90
24902;DHT22;31328;51.402;0.016;2024-01-06T14:39:24;7.90;99.90
24902;DHT22;31328;51.402;0.016;2024-01-06T14:41:51;7.90;99.90
24902;DHT22;31328;51.402;0.016;2024-01-06T14:44:18;7.90;99.90
24902;DHT22;31328;51.402;0.016;2024-01-06T14:46:50;8.00;99.90
24902;DHT22;31328;51.402;0.016;2024-01-06T14:49:17;7.90;99.90
24902;DHT22;31328;51.402;0.016;2024-01-06T14:51:44;7.90;99.90
24902;DHT22;31328;51.402;0.016;2024-01-06T14:54:11;7.90;99.90
24902;DHT22;31328;51.402;0.016;2024-01-06T14:56:38;7.90;99.90
24902;DHT22;31328;51.402;0.016;2024-01-06T14:59:04;7.90;99.90
24902;DHT22;31328;51.402;0.016;2024-01-06T15:01:32;7.90;99.90
24902;DHT22;31328;51.402;0.016;2024-01-06T15:03:58;7.90;99.90
24902;DHT22;31328;51.402;0.016;2024-01-06T15:06:25;7.90;99.90
24902;DHT22;31328;51.402;0.016;2024-01-06T15:08:51;7.80;99.90
24902;DHT22;31328;51.402;0.016;2024-01-06T15:11:17;7.80;99.90
24902;DHT22;31328;51.402;0.016;2024-01-06T15:13:44;7.80;99.90
24902;DHT22;31328;51.402;0.016;2024-01-06T15:16:11;7.80;99.90
24902;DHT22;31328;51.402;0.016;2024-01-06T15:18:37;7.80;99.90
24902;DHT22;31328;51.402;0.016;2024-01-06T15:21:04;7.80;99.90
24902;DHT22;31328;51.402;0.016;2024-01-06T15:23:30;7.80;99.90
24902;DHT22;31328;51.402;0.016;2024-01-06T15:25:56;7.80;99.90
24902;DHT22;31328;51.402;0.016;2024-01-06T15:28:23;7.80;99.90
24902;DHT22;31328;51.402;0.016;2024-01-06T15:30:49;7.80;99.90
24902;DHT22;31328;51.402;0.016;2024-01-06T15:33:15;7.70;99.90
24902;DHT22;31328;51.402;0.016;2024-01-06T15:35:42;7.70;99.90
24902;DHT22;31328;51.402;0.016;2024-01-06T15:38:08;7.70;99.90
24902;DHT22;31328;51.402;0.016;2024-01-06T15:40:34;7.70;99.90
24902;DHT22;31328;51.402;0.016;2024-01-06T15:43:01;7.60;99.90
24902;DHT22;31328;51.402;0.016;2024-01-06T15:45:27;7.50;99.90
24902;DHT22;31328;51.402;0.016;2024-01-06T15:47:53;7.50;99.90
24902;DHT22;31328;51.402;0.016;2024-01-06T15:50:20;7.40;99.90
24902;DHT22;31328;51.402;0.016;2024-01-06T15:52:46;7.40;99.90
24902;DHT22;31328;51.402;0.016;2024-01-06T15:55:14;7.30;99.90